Harrisonville, Illinois
Current Conditions -  °F | °C
As of 10:53 PM on Friday 28 Nov 2014 (Local Time) from KCPS Reporting Station
Clear Clear  
Wind Chill: 35°   Ceiling: Unl
Heat Index: 39°   Visibility: 10mi
Dew Point: 34°   Wind: 6mph
Humidity: 82%   Direction: 150°SSE
Pressure: 29.92"   Gusts: NA
Location:  38.2838°N, 90.3044°W
Report Text: KCPS 290453Z AUTO 15005KT 10SM CLR 04/01 A2992 RMK AO2 SLP132 T00390011 TSNO
Loading
Personal Weather Stations






























Interactive Weather Map New forecast layout! Learn more

10-Day Weather Forecast

Advertisements
Track Severe Weather on mobile